Terminal Aerodrome Forecast
Issued by NWS Mt. Holly, NJ

Home | Current Version | Previous Version | Text Only | Print | Product List | Glossary On
Versions: 1 2 3 4 5 6 7 8 9 10 11 12 13 14 15 16 17 18 19 20
355
FTUS41 KPHI 220520
TAFABE
TAF
KABE 220520Z 2206/2306 VRB03KT P6SM FEW150
     FM221800 24004KT P6SM SCT060 BKN100 PROB30 2221/2224 4SM TSRA
      OVC050CB
     FM230000 VRB03KT P6SM VCTS OVC050CB=

USA.gov is the U.S. government's official web portal to all federal, state and local government web resources and services.